createdAt,value
2023-03-02T00:03:36.129Z,-1.20
2023-03-02T00:08:42.023Z,-1.03
2023-03-02T00:13:47.252Z,-0.87
2023-03-02T00:18:52.264Z,-0.71
2023-03-02T00:23:57.475Z,-0.57
2023-03-02T00:29:02.893Z,-0.39
2023-03-02T00:34:08.268Z,-0.21
2023-03-02T00:39:13.508Z,-0.03
2023-03-02T00:44:21.276Z,0.20
2023-03-02T00:49:26.848Z,0.35
2023-03-02T00:54:32.365Z,0.61
2023-03-02T00:59:39.910Z,0.85
2023-03-02T01:04:55.324Z,1.06
2023-03-02T01:10:01.013Z,1.30
2023-03-02T01:15:06.126Z,1.56
2023-03-02T01:20:13.428Z,1.77
2023-03-02T01:25:20.797Z,1.99
2023-03-02T01:30:26.122Z,2.16
2023-03-02T01:35:31.442Z,2.42
2023-03-02T01:40:36.833Z,2.65
2023-03-02T01:45:55.603Z,2.91
2023-03-02T01:51:16.158Z,3.19
2023-03-02T01:56:30.392Z,3.45
2023-03-02T02:01:39.579Z,3.73
2023-03-02T02:06:53.044Z,3.97
2023-03-02T02:11:58.810Z,4.24
2023-03-02T02:17:05.430Z,4.47
2023-03-02T02:22:13.617Z,4.69
2023-03-02T02:27:19.952Z,4.87
2023-03-02T02:32:28.719Z,5.10
2023-03-02T02:37:56.001Z,5.30
2023-03-02T02:43:01.624Z,5.48
2023-03-02T02:48:07.868Z,5.62
2023-03-02T02:53:21.285Z,5.79
2023-03-02T02:58:51.024Z,6.01
2023-03-02T03:04:03.994Z,6.25
2023-03-02T03:09:12.295Z,6.47
2023-03-02T03:14:52.863Z,6.71
2023-03-02T03:20:09.432Z,6.88
2023-03-02T03:25:21.119Z,7.08
2023-03-02T03:30:27.560Z,7.26
2023-03-02T03:35:33.464Z,7.50
2023-03-02T03:40:38.847Z,7.71
2023-03-02T03:45:44.433Z,7.91
2023-03-02T03:50:50.074Z,8.15
2023-03-02T03:55:58.826Z,8.35
2023-03-02T04:01:05.041Z,8.56
2023-03-02T04:06:20.199Z,8.74
2023-03-02T04:11:26.351Z,8.91
2023-03-02T04:16:33.017Z,9.11
2023-03-02T04:21:42.024Z,9.29
2023-03-02T04:26:48.040Z,9.41
2023-03-02T04:31:55.294Z,9.54
2023-03-02T04:37:03.323Z,9.69
2023-03-02T04:42:08.124Z,9.84
2023-03-02T04:47:13.716Z,9.95
2023-03-02T04:52:19.116Z,10.08
2023-03-02T04:57:24.424Z,10.21
2023-03-02T05:02:29.969Z,10.27
2023-03-02T05:07:35.712Z,10.45
2023-03-02T05:13:01.128Z,10.65
2023-03-02T05:46:39.508Z,10.83
2023-03-02T05:51:47.164Z,11.14
2023-03-02T05:56:52.396Z,11.37
2023-03-02T06:02:00.331Z,11.59
2023-03-02T06:07:05.642Z,11.75
2023-03-02T06:12:11.318Z,11.90
2023-03-02T06:17:16.027Z,12.04
2023-03-02T06:22:21.904Z,12.17
2023-03-02T06:27:26.771Z,12.28
2023-03-02T06:32:35.404Z,12.37
2023-03-02T06:37:42.905Z,12.48
2023-03-02T06:42:48.941Z,12.60
2023-03-02T06:47:53.795Z,12.70
2023-03-02T06:52:58.789Z,12.76
2023-03-02T06:58:03.572Z,12.85
2023-03-02T07:03:08.268Z,12.95
2023-03-02T07:08:13.619Z,12.96
2023-03-02T07:13:18.295Z,13.02
2023-03-02T07:18:24.109Z,13.11
2023-03-02T07:23:29.140Z,13.10
2023-03-02T07:28:34.066Z,13.08
2023-03-02T07:33:38.909Z,13.08
2023-03-02T07:38:43.676Z,13.07
2023-03-02T07:43:48.395Z,13.03
2023-03-02T07:48:53.348Z,13.00
2023-03-02T07:53:58.071Z,12.98
2023-03-02T07:59:02.794Z,12.92
2023-03-02T08:04:07.603Z,12.90
2023-03-02T08:09:12.363Z,12.81
2023-03-02T08:14:17.299Z,12.79
2023-03-02T08:19:22.974Z,12.76
2023-03-02T08:24:28.008Z,12.67
2023-03-02T08:29:32.701Z,12.59
2023-03-02T08:34:37.836Z,12.54
2023-03-02T08:39:43.280Z,12.48
2023-03-02T08:44:47.982Z,12.39
2023-03-02T08:49:52.916Z,12.31
2023-03-02T08:54:57.648Z,12.20
2023-03-02T09:00:02.305Z,12.08
2023-03-02T09:05:07.406Z,11.92
2023-03-02T09:10:15.607Z,11.79
2023-03-02T09:15:20.281Z,11.62
2023-03-02T09:20:25.261Z,11.47
2023-03-02T09:25:32.816Z,11.29
2023-03-02T09:30:37.423Z,11.14
2023-03-02T09:35:42.116Z,11.03
2023-03-02T09:41:11.158Z,10.92
2023-03-02T09:46:30.435Z,10.75
2023-03-02T09:51:47.348Z,10.59
2023-03-02T09:57:01.017Z,10.44
2023-03-02T10:02:27.753Z,10.20
2023-03-02T10:07:35.398Z,10.00
2023-03-02T10:12:52.020Z,9.81
2023-03-02T10:18:22.425Z,9.60
2023-03-02T10:23:50.282Z,9.40
2023-03-02T10:29:07.759Z,9.23
2023-03-02T10:34:16.322Z,9.09
2023-03-02T10:39:21.138Z,8.92
2023-03-02T10:44:35.283Z,8.80
2023-03-02T10:49:45.115Z,8.67
2023-03-02T10:54:50.373Z,8.58
2023-03-02T10:59:55.002Z,8.47
2023-03-02T11:05:15.579Z,8.36
2023-03-02T11:10:25.476Z,8.24
2023-03-02T11:15:48.790Z,8.15
2023-03-02T11:20:58.788Z,8.05
2023-03-02T11:26:41.495Z,7.94
2023-03-02T11:31:54.734Z,7.81
2023-03-02T11:37:15.488Z,7.61
2023-03-02T11:42:42.552Z,7.49
2023-03-02T11:48:04.140Z,7.40
2023-03-02T11:53:20.529Z,7.29
2023-03-02T11:58:28.787Z,7.19
2023-03-02T12:03:46.104Z,7.13
2023-03-02T12:08:56.014Z,6.96
2023-03-02T12:14:07.400Z,6.72
2023-03-02T12:19:26.067Z,6.49
2023-03-02T12:24:34.566Z,6.24
2023-03-02T12:29:52.030Z,6.02
2023-03-02T12:34:58.948Z,5.82
2023-03-02T12:40:41.725Z,5.65
2023-03-02T12:46:24.562Z,5.43
2023-03-02T12:51:35.657Z,5.24
2023-03-02T12:56:42.090Z,5.18
2023-03-02T13:01:47.213Z,5.12
2023-03-02T13:06:53.217Z,5.02
2023-03-02T13:11:59.434Z,5.04
2023-03-02T13:17:06.117Z,5.09
2023-03-02T13:22:13.624Z,5.16
2023-03-02T13:27:22.150Z,5.15
2023-03-02T13:33:03.786Z,5.24
2023-03-02T13:38:19.091Z,5.24
2023-03-02T13:43:33.397Z,5.22
2023-03-02T13:48:38.667Z,5.04
2023-03-02T13:54:00.110Z,4.82
2023-03-02T13:59:07.129Z,4.65
2023-03-02T14:04:20.044Z,4.58
2023-03-02T14:09:27.187Z,4.60
2023-03-02T14:14:39.002Z,4.66
2023-03-02T14:19:44.844Z,4.68
2023-03-02T14:24:50.621Z,4.61
2023-03-02T14:29:57.479Z,4.58
2023-03-02T14:35:03.092Z,4.52
2023-03-02T14:40:16.500Z,4.50
2023-03-02T14:45:23.957Z,4.38
2023-03-02T14:50:29.123Z,4.17
2023-03-02T14:55:34.698Z,3.95
2023-03-02T15:00:41.248Z,3.78
2023-03-02T15:05:59.018Z,3.65
2023-03-02T15:11:06.008Z,3.69
2023-03-02T15:16:14.876Z,3.78
2023-03-02T15:21:25.652Z,3.84
2023-03-02T15:26:30.439Z,3.79
2023-03-02T15:31:35.368Z,3.64
2023-03-02T15:36:41.663Z,3.58
2023-03-02T15:41:46.704Z,3.64
2023-03-02T15:46:52.930Z,3.60
2023-03-02T15:51:58.795Z,3.44
2023-03-02T15:57:05.021Z,3.26
2023-03-02T16:02:11.037Z,3.15
2023-03-02T16:07:15.580Z,3.13
2023-03-02T16:12:24.596Z,3.11
2023-03-02T16:17:29.581Z,3.14
2023-03-02T16:22:34.196Z,3.12
2023-03-02T16:27:38.971Z,3.14
2023-03-02T16:32:43.957Z,3.10
2023-03-02T16:37:48.677Z,3.09
2023-03-02T16:42:53.668Z,3.02
2023-03-02T16:47:58.208Z,2.90
2023-03-02T16:53:03.046Z,2.75
2023-03-02T16:58:07.680Z,2.66
2023-03-02T17:03:13.300Z,2.64
2023-03-02T17:08:18.691Z,2.73
2023-03-02T17:13:23.423Z,2.72
2023-03-02T17:18:29.579Z,2.54
2023-03-02T17:23:34.731Z,2.44
2023-03-02T17:28:40.421Z,2.39
2023-03-02T17:33:44.998Z,2.33
2023-03-02T17:38:49.733Z,2.24
2023-03-02T17:43:54.403Z,2.14
2023-03-02T17:49:02.072Z,2.02
2023-03-02T17:54:07.086Z,1.85
2023-03-02T17:59:13.633Z,1.74
2023-03-02T18:04:18.484Z,1.72
2023-03-02T18:09:23.611Z,1.72
2023-03-02T18:14:29.661Z,1.69
2023-03-02T18:19:34.212Z,1.59
2023-03-02T18:24:38.859Z,1.58
2023-03-02T18:29:43.619Z,1.58
2023-03-02T18:34:49.301Z,1.54
2023-03-02T18:39:54.029Z,1.50
2023-03-02T18:44:58.861Z,1.51
2023-03-02T18:50:04.289Z,1.46
2023-03-02T18:55:10.157Z,1.35
2023-03-02T19:00:21.261Z,1.24
2023-03-02T19:05:28.075Z,1.12
2023-03-02T19:10:32.853Z,0.99
2023-03-02T19:15:38.345Z,0.91
2023-03-02T19:20:42.989Z,0.82
2023-03-02T19:25:47.973Z,0.77
2023-03-02T19:30:53.182Z,0.79
2023-03-02T19:35:57.778Z,0.80
2023-03-02T19:41:03.220Z,0.86
2023-03-02T19:46:08.671Z,0.86
2023-03-02T19:51:15.645Z,0.88
2023-03-02T19:56:22.030Z,0.81
2023-03-02T20:01:27.676Z,0.73
2023-03-02T20:06:35.363Z,0.62
2023-03-02T20:11:40.168Z,0.51
2023-03-02T20:16:46.036Z,0.43
2023-03-02T20:21:52.104Z,0.41
2023-03-02T20:26:56.653Z,0.30
2023-03-02T20:32:02.484Z,0.12
2023-03-02T20:37:08.399Z,0.03
2023-03-02T20:42:14.347Z,-0.07
2023-03-02T20:47:18.378Z,-0.14
2023-03-02T20:52:24.126Z,-0.14
2023-03-02T20:57:28.983Z,-0.18
2023-03-02T21:02:33.699Z,-0.27
2023-03-02T21:07:38.820Z,-0.26
2023-03-02T21:12:44.072Z,-0.32
2023-03-02T21:17:49.412Z,-0.35
2023-03-02T21:22:54.059Z,-0.35
2023-03-02T21:28:00.936Z,-0.32
2023-03-02T21:33:05.993Z,-0.38
2023-03-02T21:38:10.788Z,-0.37
2023-03-02T21:43:16.897Z,-0.32
2023-03-02T21:48:23.015Z,-0.35
2023-03-02T21:53:28.873Z,-0.38
2023-03-02T21:58:33.632Z,-0.43
2023-03-02T22:03:40.040Z,-0.48
2023-03-02T22:08:44.688Z,-0.47
2023-03-02T22:13:51.216Z,-0.52
2023-03-02T22:18:58.814Z,-0.56
2023-03-02T22:24:14.004Z,-0.57
2023-03-02T22:29:30.939Z,-0.63
2023-03-02T22:34:38.829Z,-0.74
2023-03-02T22:39:43.523Z,-0.78
2023-03-02T22:45:15.024Z,-0.82
2023-03-02T22:50:32.699Z,-0.86
2023-03-02T22:55:44.760Z,-0.93
2023-03-02T23:00:50.160Z,-1.00
2023-03-02T23:05:55.717Z,-1.03
2023-03-02T23:11:01.143Z,-0.99
2023-03-02T23:16:21.561Z,-0.95
2023-03-02T23:21:37.449Z,-0.93
2023-03-02T23:26:43.892Z,-0.92
2023-03-02T23:31:49.196Z,-0.86
2023-03-02T23:36:53.899Z,-0.73
2023-03-02T23:41:59.477Z,-0.57
2023-03-02T23:47:04.619Z,-0.45
2023-03-02T23:52:09.196Z,-0.27
2023-03-02T23:57:15.792Z,-0.13
